createdAt,value
2022-11-28T00:01:43.232Z,35.60
2022-11-28T00:04:10.659Z,44.05
2022-11-28T00:06:50.974Z,36.85
2022-11-28T00:09:21.901Z,39.78
2022-11-28T00:11:49.873Z,33.88
2022-11-28T00:14:18.891Z,41.53
2022-11-28T00:17:23.783Z,38.55
2022-11-28T00:19:50.782Z,31.00
2022-11-28T00:22:17.639Z,38.30
2022-11-28T00:24:44.767Z,33.40
2022-11-28T00:27:51.409Z,36.33
2022-11-28T00:30:18.367Z,33.60
2022-11-28T00:32:45.168Z,38.80
2022-11-28T00:35:12.018Z,38.42
2022-11-28T00:37:40.102Z,41.97
2022-11-28T00:40:07.697Z,41.08
2022-11-28T00:42:34.472Z,51.65
2022-11-28T00:45:01.250Z,54.25
2022-11-28T00:48:06.997Z,43.45
2022-11-28T00:50:33.839Z,34.97
2022-11-28T00:53:00.605Z,31.85
2022-11-28T00:55:27.414Z,41.30
2022-11-28T00:57:55.400Z,34.40
2022-11-28T01:00:22.429Z,35.63
2022-11-28T01:02:49.495Z,33.00
2022-11-28T01:05:16.540Z,35.80
2022-11-28T01:08:10.868Z,34.70
2022-11-28T01:10:42.558Z,32.78
2022-11-28T01:13:10.603Z,33.10
2022-11-28T01:15:40.694Z,46.25
2022-11-28T01:18:27.749Z,35.38
2022-11-28T01:20:54.586Z,32.97
2022-11-28T01:23:21.442Z,37.88
2022-11-28T01:25:48.430Z,37.15
2022-11-28T01:28:17.586Z,30.02
2022-11-28T01:30:44.559Z,34.83
2022-11-28T01:33:11.389Z,33.85
2022-11-28T01:35:38.223Z,37.22
2022-11-28T01:38:05.212Z,33.78
2022-11-28T01:40:32.544Z,29.63
2022-11-28T01:42:59.359Z,31.88
2022-11-28T01:45:34.917Z,33.55
2022-11-28T01:48:03.842Z,36.05
2022-11-28T01:50:33.054Z,32.20
2022-11-28T01:53:04.732Z,35.35
2022-11-28T01:55:35.463Z,31.70
2022-11-28T01:58:42.054Z,30.17
2022-11-28T02:01:10.412Z,32.17
2022-11-28T02:03:49.597Z,34.63
2022-11-28T02:06:20.385Z,36.55
2022-11-28T02:08:50.367Z,35.03
2022-11-28T02:11:40.087Z,30.63
2022-11-28T02:14:37.730Z,36.80
2022-11-28T02:17:22.764Z,48.15
2022-11-28T02:20:07.550Z,37.55
2022-11-28T02:23:00.614Z,39.85
2022-11-28T02:25:55.075Z,33.67
2022-11-28T02:28:52.708Z,52.53
2022-11-28T02:32:01.652Z,11.88
2022-11-28T02:34:59.951Z,35.40
2022-11-28T02:38:06.026Z,37.05
2022-11-28T02:40:49.538Z,11.93
2022-11-28T02:43:27.925Z,31.92
2022-11-28T02:45:57.518Z,12.20
2022-11-28T02:48:38.431Z,32.53
2022-11-28T02:51:26.152Z,39.15
2022-11-28T02:53:55.442Z,11.43
2022-11-28T02:56:24.388Z,37.42
2022-11-28T02:58:51.422Z,12.43
2022-11-28T03:01:25.725Z,34.53
2022-11-28T03:04:18.325Z,37.70
2022-11-28T03:07:23.364Z,31.83
2022-11-28T03:10:14.364Z,36.20
2022-11-28T03:13:04.897Z,11.35
2022-11-28T03:15:44.389Z,11.73
2022-11-28T03:19:07.907Z,30.70
2022-11-28T03:21:58.897Z,32.97
2022-11-28T03:24:40.956Z,32.95
2022-11-28T03:27:21.136Z,35.42
2022-11-28T03:29:52.906Z,36.08
2022-11-28T03:32:26.118Z,13.82
2022-11-28T03:34:59.553Z,12.43
2022-11-28T03:37:32.680Z,36.42
2022-11-28T03:40:03.155Z,39.70
2022-11-28T03:42:34.303Z,45.08
2022-11-28T03:45:13.783Z,43.40
2022-11-28T03:47:46.013Z,50.20
2022-11-28T03:50:27.000Z,33.65
2022-11-28T03:53:00.567Z,21.55
2022-11-28T03:55:40.606Z,18.17
2022-11-28T03:58:37.526Z,19.70
2022-11-28T04:01:22.367Z,37.58
2022-11-28T04:03:59.539Z,18.15
2022-11-28T04:06:37.679Z,17.17
2022-11-28T04:09:14.344Z,35.90
2022-11-28T04:12:06.854Z,33.10
2022-11-28T04:15:26.092Z,44.17
2022-11-28T04:18:34.321Z,39.88
2022-11-28T04:21:14.517Z,21.38
2022-11-28T04:23:44.266Z,45.25
2022-11-28T04:26:15.273Z,44.17
2022-11-28T04:28:42.627Z,39.33
2022-11-28T04:31:10.407Z,42.13
2022-11-28T04:33:42.970Z,43.05
2022-11-28T04:36:11.618Z,20.77
2022-11-28T04:38:45.434Z,19.70
2022-11-28T04:41:20.531Z,39.90
2022-11-28T04:43:57.390Z,18.50
2022-11-28T04:46:32.026Z,19.50
2022-11-28T04:48:59.463Z,46.03
2022-11-28T04:51:41.277Z,43.67
2022-11-28T04:54:37.111Z,19.77
2022-11-28T04:57:24.526Z,38.50
2022-11-28T04:59:52.341Z,21.55
2022-11-28T05:02:20.839Z,19.08
2022-11-28T05:04:47.672Z,60.75
2022-11-28T05:07:14.869Z,39.33
2022-11-28T05:09:41.883Z,19.45
2022-11-28T05:12:08.882Z,43.42
2022-11-28T05:14:35.688Z,17.88
2022-11-28T05:17:02.707Z,53.63
2022-11-28T05:19:29.573Z,17.02
2022-11-28T05:21:56.395Z,43.42
2022-11-28T05:24:25.756Z,16.85
2022-11-28T05:26:57.190Z,18.40
2022-11-28T05:29:25.399Z,17.65
2022-11-28T05:31:52.486Z,36.03
2022-11-28T05:34:19.418Z,37.58
2022-11-28T05:36:49.027Z,17.20
2022-11-28T05:39:16.106Z,15.35
2022-11-28T05:41:42.887Z,16.85
2022-11-28T05:44:10.310Z,38.75
2022-11-28T05:46:39.268Z,39.92
2022-11-28T05:49:06.066Z,35.75
2022-11-28T05:51:32.938Z,12.40
2022-11-28T05:53:59.745Z,37.20
2022-11-28T05:56:27.899Z,13.85
2022-11-28T05:58:54.751Z,13.30
2022-11-28T06:01:25.170Z,41.70
2022-11-28T06:03:58.079Z,37.35
2022-11-28T06:06:28.764Z,44.58
2022-11-28T06:08:56.362Z,43.55
2022-11-28T06:11:25.219Z,13.10
2022-11-28T06:13:52.341Z,42.53
2022-11-28T06:16:25.162Z,41.65
2022-11-28T06:19:01.307Z,13.02
2022-11-28T06:21:29.438Z,14.27
2022-11-28T06:23:58.150Z,40.03
2022-11-28T06:26:26.337Z,39.53
2022-11-28T06:28:55.449Z,14.60
2022-11-28T06:31:28.614Z,52.33
2022-11-28T06:33:56.325Z,14.52
2022-11-28T06:37:01.104Z,14.30
2022-11-28T06:39:27.990Z,13.80
2022-11-28T06:41:54.764Z,42.42
2022-11-28T06:44:21.660Z,13.57
2022-11-28T06:47:27.183Z,13.45
2022-11-28T06:49:54.020Z,37.95
2022-11-28T06:52:20.819Z,11.93
2022-11-28T06:54:47.660Z,12.93
2022-11-28T06:57:16.536Z,13.05
2022-11-28T06:59:43.524Z,12.05
2022-11-28T07:02:11.523Z,14.18
2022-11-28T07:04:38.411Z,13.07
2022-11-28T07:07:05.512Z,13.05
2022-11-28T07:09:32.331Z,37.53
2022-11-28T07:11:59.092Z,13.75
2022-11-28T07:14:25.941Z,43.85
2022-11-28T07:16:55.061Z,14.93
2022-11-28T07:19:23.106Z,21.00
2022-11-28T07:21:50.489Z,15.55
2022-11-28T07:24:18.966Z,36.33
2022-11-28T07:26:46.912Z,15.23
2022-11-28T07:29:56.391Z,12.55
2022-11-28T07:32:23.202Z,11.95
2022-11-28T07:34:50.436Z,54.53
2022-11-28T07:37:22.682Z,12.10
2022-11-28T07:39:49.523Z,13.85
2022-11-28T07:42:16.665Z,13.40
2022-11-28T07:44:50.538Z,38.78
2022-11-28T07:47:18.559Z,16.45
2022-11-28T07:49:45.650Z,15.02
2022-11-28T07:52:12.445Z,18.23
2022-11-28T07:54:39.306Z,16.08
2022-11-28T07:57:12.490Z,17.98
2022-11-28T07:59:40.319Z,16.33
2022-11-28T08:02:09.113Z,46.80
2022-11-28T08:04:37.097Z,18.05
2022-11-28T08:07:06.239Z,17.15
2022-11-28T08:09:33.199Z,19.45
2022-11-28T08:12:00.038Z,48.05
2022-11-28T08:14:26.886Z,52.85
2022-11-28T08:16:53.943Z,46.13
2022-11-28T08:19:24.573Z,18.42
2022-11-28T08:21:51.682Z,18.08
2022-11-28T08:24:18.554Z,18.35
2022-11-28T08:27:04.503Z,18.73
2022-11-28T08:29:31.394Z,19.52
2022-11-28T08:31:58.171Z,19.38
2022-11-28T08:34:25.005Z,19.40
2022-11-28T08:36:54.114Z,45.55
2022-11-28T08:39:25.039Z,20.05
2022-11-28T08:41:56.973Z,45.00
2022-11-28T08:44:23.821Z,40.10
2022-11-28T08:46:50.788Z,41.38
2022-11-28T08:49:17.809Z,19.88
2022-11-28T08:51:45.833Z,49.38
2022-11-28T08:54:12.664Z,17.92
2022-11-28T08:56:46.526Z,46.33
2022-11-28T08:59:15.995Z,23.45
2022-11-28T09:01:43.099Z,19.27
2022-11-28T09:04:10.264Z,51.15
2022-11-28T09:06:39.507Z,25.48
2022-11-28T09:09:06.514Z,55.47
2022-11-28T09:11:33.615Z,43.60
2022-11-28T09:14:00.523Z,42.50
2022-11-28T09:16:27.388Z,74.28
2022-11-28T09:18:57.454Z,56.95
2022-11-28T09:21:24.453Z,50.63
2022-11-28T09:23:51.591Z,46.88
2022-11-28T09:26:22.771Z,51.63
2022-11-28T09:28:49.623Z,44.55
2022-11-28T09:31:18.077Z,49.97
2022-11-28T09:33:46.415Z,39.42
2022-11-28T09:36:17.718Z,35.22
2022-11-28T09:38:44.765Z,44.70
2022-11-28T09:41:30.001Z,72.53
2022-11-28T09:44:25.745Z,73.75
2022-11-28T09:46:58.940Z,52.65
2022-11-28T09:49:40.781Z,59.67
2022-11-28T09:52:45.165Z,60.75
2022-11-28T09:55:35.756Z,65.22
2022-11-28T09:58:27.003Z,73.25
2022-11-28T10:00:57.946Z,78.13
2022-11-28T10:03:30.967Z,89.20
2022-11-28T10:06:18.072Z,61.83
2022-11-28T10:09:13.913Z,46.20
2022-11-28T10:12:02.276Z,55.13
2022-11-28T10:14:34.863Z,62.88
2022-11-28T10:17:59.924Z,53.10
2022-11-28T10:23:26.432Z,49.33
2022-11-28T10:26:16.030Z,37.17
2022-11-28T10:28:47.091Z,31.02
2022-11-28T10:31:36.827Z,26.67
2022-11-28T10:34:23.666Z,25.85
2022-11-28T10:37:05.426Z,25.75
2022-11-28T10:39:32.585Z,20.65
2022-11-28T10:42:29.665Z,23.25
2022-11-28T10:45:20.649Z,20.50
2022-11-28T10:48:38.493Z,20.05
2022-11-28T10:51:12.383Z,18.65
2022-11-28T10:54:04.356Z,17.42
2022-11-28T10:56:54.264Z,18.17
2022-11-28T10:59:40.331Z,20.73
2022-11-28T11:02:49.847Z,18.10
2022-11-28T11:05:25.388Z,18.02
2022-11-28T11:08:48.972Z,19.15
2022-11-28T11:11:18.976Z,18.55
2022-11-28T11:14:04.349Z,20.00
2022-11-28T11:16:46.983Z,18.58
2022-11-28T11:19:43.410Z,21.08
2022-11-28T11:22:24.185Z,18.52
2022-11-28T11:25:14.625Z,20.05
2022-11-28T11:28:02.973Z,18.25
2022-11-28T11:30:42.821Z,18.88
2022-11-28T11:33:16.929Z,18.85
2022-11-28T11:35:48.067Z,19.10
2022-11-28T11:38:41.433Z,17.08
2022-11-28T11:41:21.535Z,19.00
2022-11-28T11:43:48.804Z,18.42
2022-11-28T11:46:16.687Z,20.17
2022-11-28T11:48:48.035Z,18.65
2022-11-28T11:51:23.650Z,19.73
2022-11-28T11:54:13.272Z,22.00
2022-11-28T11:56:44.729Z,20.58
2022-11-28T11:59:20.106Z,23.17
2022-11-28T12:01:50.466Z,20.02
2022-11-28T12:04:45.018Z,20.77
2022-11-28T12:07:59.613Z,18.65
2022-11-28T12:10:30.731Z,18.60
2022-11-28T12:12:57.842Z,19.83
2022-11-28T12:15:27.776Z,20.55
2022-11-28T12:21:26.511Z,20.60
2022-11-28T12:24:12.376Z,19.52
2022-11-28T12:27:13.016Z,18.98
2022-11-28T12:29:49.580Z,18.35
2022-11-28T12:32:22.942Z,18.88
2022-11-28T12:35:15.546Z,20.55
2022-11-28T12:38:14.019Z,20.00
2022-11-28T12:40:51.421Z,18.63
2022-11-28T12:43:23.870Z,18.45
2022-11-28T12:46:07.573Z,18.40
2022-11-28T12:48:58.485Z,19.42
2022-11-28T12:51:51.464Z,19.38
2022-11-28T12:54:56.552Z,20.08
2022-11-28T12:57:34.956Z,18.23
2022-11-28T13:00:25.512Z,21.73
2022-11-28T13:03:23.495Z,19.40
2022-11-28T13:06:10.876Z,21.60
2022-11-28T13:09:27.787Z,18.27
2022-11-28T13:12:03.505Z,19.73
2022-11-28T13:14:52.570Z,22.00
2022-11-28T13:17:38.469Z,18.02
2022-11-28T13:20:14.222Z,19.73
2022-11-28T13:23:06.546Z,19.00
2022-11-28T13:25:45.319Z,18.70
2022-11-28T13:28:52.066Z,21.15
2022-11-28T13:31:28.919Z,21.50
2022-11-28T13:33:57.081Z,21.23
2022-11-28T13:40:09.019Z,20.52
2022-11-28T13:43:03.403Z,21.13
2022-11-28T13:45:46.367Z,19.80
2022-11-28T13:51:42.833Z,18.80
2022-11-28T13:54:19.160Z,19.88
2022-11-28T13:56:48.822Z,19.63
2022-11-28T13:59:22.703Z,21.83
2022-11-28T14:02:18.401Z,18.75
2022-11-28T14:05:28.411Z,23.50
2022-11-28T14:07:57.770Z,21.20
2022-11-28T14:11:22.748Z,24.67
2022-11-28T14:14:13.183Z,25.40
2022-11-28T14:16:46.901Z,22.58
2022-11-28T14:19:45.750Z,21.48
2022-11-28T14:25:23.759Z,22.25
2022-11-28T14:28:36.698Z,24.08
2022-11-28T14:31:32.596Z,20.15
2022-11-28T14:34:25.321Z,21.25
2022-11-28T14:37:19.320Z,23.50
2022-11-28T14:39:48.267Z,23.42
2022-11-28T14:42:30.871Z,22.42
2022-11-28T14:45:22.110Z,23.17
2022-11-28T14:48:17.651Z,22.85
2022-11-28T14:50:49.877Z,23.25
2022-11-28T14:53:38.152Z,23.27
2022-11-28T14:56:26.904Z,23.55
2022-11-28T14:58:58.307Z,24.92
2022-11-28T15:01:43.494Z,22.88
2022-11-28T15:04:32.489Z,23.20
2022-11-28T15:07:02.422Z,24.38
2022-11-28T15:09:42.891Z,24.42
2022-11-28T15:12:22.865Z,22.77
2022-11-28T15:14:56.196Z,22.52
2022-11-28T15:17:30.767Z,22.48
2022-11-28T15:20:03.066Z,25.60
2022-11-28T15:22:40.780Z,22.55
2022-11-28T15:25:26.214Z,22.73
2022-11-28T15:28:25.377Z,23.67
2022-11-28T15:30:54.041Z,26.55
2022-11-28T15:33:21.894Z,24.65
2022-11-28T15:35:55.151Z,24.77
2022-11-28T15:38:27.397Z,25.88
2022-11-28T15:40:56.410Z,25.23
2022-11-28T15:43:24.059Z,23.00
2022-11-28T15:45:53.782Z,23.80
2022-11-28T15:48:40.094Z,26.77
2022-11-28T15:51:08.737Z,26.23
2022-11-28T15:53:42.152Z,30.65
2022-11-28T15:56:15.010Z,29.65
2022-11-28T15:58:43.885Z,30.08
2022-11-28T16:01:21.122Z,30.90
2022-11-28T16:03:57.167Z,29.63
2022-11-28T16:06:28.458Z,30.65
2022-11-28T16:08:58.469Z,32.63
2022-11-28T16:11:27.280Z,33.75
2022-11-28T16:13:57.278Z,32.63
2022-11-28T16:16:28.810Z,32.20
2022-11-28T16:19:08.287Z,32.42
2022-11-28T16:21:50.770Z,33.75
2022-11-28T16:24:41.893Z,33.25
2022-11-28T16:27:33.714Z,37.17
2022-11-28T16:30:01.482Z,34.83
2022-11-28T16:32:40.028Z,35.50
2022-11-28T16:35:12.412Z,38.42
2022-11-28T16:38:18.352Z,36.03
2022-11-28T16:40:45.436Z,36.85
2022-11-28T16:43:33.088Z,37.08
2022-11-28T16:46:08.896Z,38.17
2022-11-28T16:48:48.056Z,37.03
2022-11-28T16:51:15.313Z,36.65
2022-11-28T16:53:50.018Z,37.28
2022-11-28T16:56:23.978Z,36.55
2022-11-28T16:59:18.215Z,37.72
2022-11-28T17:01:53.243Z,38.78
2022-11-28T17:04:21.476Z,36.60
2022-11-28T17:06:51.655Z,49.03
2022-11-28T17:09:19.327Z,45.88
2022-11-28T17:11:57.224Z,44.30
2022-11-28T17:17:18.914Z,38.67
2022-11-28T17:19:47.009Z,44.47
2022-11-28T17:22:24.893Z,47.42
2022-11-28T17:24:56.414Z,48.95
2022-11-28T17:27:30.686Z,48.85
2022-11-28T17:29:58.081Z,45.90
2022-11-28T17:32:25.273Z,48.95
2022-11-28T17:34:52.299Z,47.55
2022-11-28T17:37:20.464Z,49.63
2022-11-28T17:40:06.052Z,46.50
2022-11-28T17:42:33.163Z,52.13
2022-11-28T17:45:00.186Z,52.20
2022-11-28T17:47:46.015Z,49.95
2022-11-28T17:50:13.230Z,55.30
2022-11-28T17:52:41.255Z,55.65
2022-11-28T17:55:10.111Z,57.38
2022-11-28T17:57:37.195Z,52.10
2022-11-28T18:00:09.116Z,50.88
2022-11-28T18:02:43.528Z,63.25
2022-11-28T18:05:10.677Z,55.85
2022-11-28T18:07:41.424Z,55.95
2022-11-28T18:10:11.338Z,59.78
2022-11-28T18:12:39.456Z,64.20
2022-11-28T18:15:08.054Z,76.43
2022-11-28T18:17:36.843Z,61.38
2022-11-28T18:20:05.060Z,66.15
2022-11-28T18:22:32.049Z,63.67
2022-11-28T18:24:58.926Z,59.78
2022-11-28T18:27:25.876Z,63.70
2022-11-28T18:29:52.917Z,58.90
2022-11-28T18:32:19.795Z,56.80
2022-11-28T18:34:47.350Z,57.15
2022-11-28T18:37:33.275Z,54.88
2022-11-28T18:40:00.261Z,50.92
2022-11-28T18:42:27.128Z,46.10
2022-11-28T18:44:54.235Z,46.92
2022-11-28T18:47:26.065Z,44.97
2022-11-28T18:49:53.373Z,43.70
2022-11-28T18:52:20.300Z,42.75
2022-11-28T18:54:47.984Z,40.08
2022-11-28T18:57:15.155Z,35.38
2022-11-28T18:59:49.776Z,36.20
2022-11-28T19:02:19.893Z,32.15
2022-11-28T19:04:47.036Z,42.85
2022-11-28T19:07:19.171Z,32.03
2022-11-28T19:09:46.530Z,34.47
2022-11-28T19:12:14.551Z,37.63
2022-11-28T19:15:07.251Z,35.67
2022-11-28T19:17:53.158Z,38.90
2022-11-28T19:20:20.001Z,39.60
2022-11-28T19:22:47.860Z,37.92
2022-11-28T19:25:14.770Z,36.75
2022-11-28T19:27:44.539Z,33.45
2022-11-28T19:30:15.369Z,35.55
2022-11-28T19:32:42.575Z,37.22
2022-11-28T19:35:09.541Z,34.95
2022-11-28T19:37:38.971Z,33.15
2022-11-28T19:40:06.609Z,38.13
2022-11-28T19:42:33.487Z,34.83
2022-11-28T19:45:00.420Z,35.88
2022-11-28T19:47:27.881Z,36.97
2022-11-28T19:49:54.789Z,36.30
2022-11-28T19:52:22.307Z,34.33
2022-11-28T19:54:49.320Z,37.20
2022-11-28T19:57:20.850Z,38.00
2022-11-28T19:59:48.221Z,35.85
2022-11-28T20:02:15.399Z,37.15
2022-11-28T20:04:43.517Z,35.55
2022-11-28T20:07:11.499Z,37.72
2022-11-28T20:09:38.543Z,38.20
2022-11-28T20:12:05.917Z,39.90
2022-11-28T20:14:33.908Z,42.28
2022-11-28T20:17:01.139Z,42.50
2022-11-28T20:19:28.311Z,38.25
2022-11-28T20:21:59.081Z,41.83
2022-11-28T20:24:26.216Z,42.30
2022-11-28T20:26:57.003Z,41.85
2022-11-28T20:29:27.019Z,43.65
2022-11-28T20:31:57.113Z,36.10
2022-11-28T20:34:24.467Z,43.55
2022-11-28T20:37:32.519Z,53.38
2022-11-28T20:39:59.438Z,50.53
2022-11-28T20:42:26.335Z,51.20
2022-11-28T20:44:53.323Z,49.45
2022-11-28T20:47:22.064Z,53.45
2022-11-28T20:49:49.429Z,53.33
2022-11-28T20:52:16.357Z,52.70
2022-11-28T20:54:43.768Z,78.88
2022-11-28T20:57:21.393Z,50.28
2022-11-28T20:59:49.052Z,54.67
2022-11-28T21:02:16.140Z,35.97
2022-11-28T21:04:43.180Z,54.50
2022-11-28T21:07:11.351Z,47.63
2022-11-28T21:09:38.203Z,50.42
2022-11-28T21:12:05.341Z,50.13
2022-11-28T21:14:32.234Z,56.58
2022-11-28T21:17:01.395Z,70.45
2022-11-28T21:19:28.269Z,54.17
2022-11-28T21:21:55.101Z,59.65
2022-11-28T21:24:22.038Z,55.30
2022-11-28T21:27:08.682Z,59.53
2022-11-28T21:29:35.551Z,28.60
2022-11-28T21:32:02.440Z,63.05
2022-11-28T21:34:29.296Z,26.50
2022-11-28T21:36:56.209Z,23.70
2022-11-28T21:39:23.245Z,21.20
2022-11-28T21:42:20.471Z,55.90
2022-11-28T21:44:47.888Z,57.45
2022-11-28T21:47:15.922Z,57.92
2022-11-28T21:49:43.207Z,55.35
2022-11-28T21:52:11.528Z,61.40
2022-11-28T21:54:38.392Z,24.15
2022-11-28T21:57:07.551Z,88.55
2022-11-28T21:59:34.426Z,57.58
2022-11-28T22:02:01.618Z,61.15
2022-11-28T22:04:28.771Z,24.63
2022-11-28T22:06:56.099Z,54.80
2022-11-28T22:09:23.082Z,60.58
2022-11-28T22:11:50.033Z,70.93
2022-11-28T22:14:17.881Z,65.40
2022-11-28T22:16:48.154Z,59.70
2022-11-28T22:19:15.079Z,57.90
2022-11-28T22:21:52.091Z,56.25
2022-11-28T22:24:20.784Z,62.60
2022-11-28T22:26:53.794Z,23.17
2022-11-28T22:29:20.711Z,58.67
2022-11-28T22:31:48.958Z,91.68
2022-11-28T22:34:16.184Z,53.72
2022-11-28T22:36:44.331Z,23.52
2022-11-28T22:39:11.660Z,21.15
2022-11-28T22:41:38.745Z,57.60
2022-11-28T22:44:05.699Z,24.42
2022-11-28T22:46:33.538Z,52.53
2022-11-28T22:49:00.864Z,53.47
2022-11-28T22:51:29.087Z,53.22
2022-11-28T22:53:57.898Z,29.65
2022-11-28T22:56:32.954Z,53.85
2022-11-28T22:59:00.880Z,59.50
2022-11-28T23:01:30.377Z,57.70
2022-11-28T23:03:58.119Z,54.50
2022-11-28T23:06:27.850Z,131.32
2022-11-28T23:08:57.050Z,60.20
2022-11-28T23:11:29.196Z,57.67
2022-11-28T23:13:56.458Z,65.03
2022-11-28T23:16:28.189Z,21.92
2022-11-28T23:18:57.827Z,56.40
2022-11-28T23:21:25.984Z,56.20
2022-11-28T23:23:53.581Z,23.77
2022-11-28T23:26:39.230Z,62.50
2022-11-28T23:29:06.285Z,62.00
2022-11-28T23:31:36.833Z,65.57
2022-11-28T23:34:04.450Z,64.68
2022-11-28T23:36:41.752Z,61.50
2022-11-28T23:39:17.930Z,64.07
2022-11-28T23:41:45.310Z,19.15
2022-11-28T23:44:13.708Z,61.53
2022-11-28T23:46:41.654Z,61.45
2022-11-28T23:49:09.228Z,58.35
2022-11-28T23:51:36.653Z,66.65
2022-11-28T23:54:03.765Z,110.95
2022-11-28T23:56:33.607Z,87.15
2022-11-28T23:59:03.928Z,53.53
